Date,TemperatureHighF,TemperatureAvgF,TemperatureLowF,DewpointHighF,DewpointAvgF,DewpointLowF,HumidityHigh,HumidityAvg,HumidityLow,PressureMaxIn,PressureMinIn,WindSpeedMaxMPH,WindSpeedAvgMPH,GustSpeedMaxMPH,PrecipitationSumIn
2013-2-1,23.8,20.9,15.3,14.4,9.2,4.2,75,61,49,30.12,29.60,18,4,25,0.00
2013-2-2,23.7,16.6,8.1,14.9,7.2,1.8,85,67,51,30.23,30.03,8,1,13,0.00
2013-2-3,27.2,18.3,9.6,13.5,10.3,6.0,92,72,49,30.05,29.76,5,0,13,0.00
2013-2-4,22.8,18.7,14.4,15.8,8.7,2.9,89,66,48,29.94,29.75,16,3,26,0.00
2013-2-5,26.5,17.8,6.8,14.5,8.7,3.6,87,68,49,30.03,29.89,6,0,9,0.00
2013-2-6,31.4,24.6,16.0,21.8,13.0,0.3,87,63,32,30.35,29.89,14,3,17,0.00
2013-2-7,24.7,18.0,8.9,8.3,3.5,0.0,70,53,41,30.55,30.34,7,1,9,0.00
2013-2-8,28.3,24.7,19.8,20.1,15.2,6.3,88,68,45,30.39,29.80,22,6,36,0.00
2013-2-9,20.2,13.9,7.6,18.9,5.2,-4.0,98,69,46,30.36,29.82,14,2,24,0.00
2013-2-10,28.9,12.8,-2.0,11.9,2.2,-6.0,83,63,39,30.52,30.29,5,0,7,0.08
2013-2-11,48.4,36.7,13.5,40.8,27.0,1.1,93,72,22,30.30,29.62,23,4,34,0.43
2013-2-12,35.2,33.4,30.1,29.2,26.8,23.5,81,77,73,29.90,29.65,18,5,24,0.00
2013-2-13,35.9,30.3,26.7,25.2,22.8,19.2,84,74,55,29.88,29.73,7,1,13,0.00
2013-2-14,37.9,29.4,19.7,25.0,21.4,16.7,92,73,53,29.97,29.72,5,1,9,0.00
2013-2-15,43.9,37.6,28.9,30.5,26.5,22.5,90,65,50,29.98,29.87,10,2,20,0.01
2013-2-16,30.9,27.1,20.8,26.7,18.6,4.9,92,71,49,30.00,29.84,6,1,11,0.01
2013-2-17,21.3,15.7,9.2,7.2,3.3,-1.0,71,58,46,29.90,29.64,19,3,19,0.00
2013-2-18,27.0,14.6,5.6,10.5,1.5,-2.0,73,56,34,30.20,29.90,12,2,17,0.00
2013-2-19,44.8,30.0,14.0,33.3,21.4,6.0,94,72,44,30.17,29.59,16,2,30,0.34
2013-2-20,31.9,24.7,21.8,30.3,17.6,12.9,94,75,57,29.84,29.61,18,5,27,0.01
2013-2-21,23.7,20.2,16.1,15.0,10.9,6.7,79,67,56,30.39,29.84,18,3,20,0.00
2013-2-22,37.4,27.9,17.5,25.0,19.8,14.3,94,73,58,30.43,30.23,8,1,15,0.02
2013-2-23,36.9,34.6,32.0,30.7,27.6,21.5,86,76,61,30.24,29.87,12,3,18,0.02
2013-2-24,35.2,32.4,30.0,33.1,30.5,28.2,94,93,80,29.95,29.76,5,0,9,0.08
2013-2-25,35.7,31.1,28.3,30.8,28.0,25.4,94,89,79,30.24,29.95,4,0,7,0.10
2013-2-26,42.0,33.6,25.0,31.2,26.4,23.0,92,76,59,30.32,30.03,12,2,25,0.00
2013-2-27,38.8,35.7,31.5,35.0,29.9,23.8,92,80,65,30.04,29.57,28,5,33,0.23
2013-2-28,41.4,35.5,31.4,34.7,30.7,27.2,96,83,72,29.60,29.54,6,0,11,0.01